X  Fermer Données météorologiques d'aviation de Metar        LYNI Nis Airport
Température
2°C Température
-9°C Point de rosée
44% Humidité



Vitesse
4 M/S
10 MPH
17 KM/H
9 KTS



40°
NE
Conditions actuelles

Mostly Cloudy Plutôt nuageux
Pression 1040 (hPa) - 30.71 (inHg)
Visibilité 6 (mile) - 10 (km)
Aéroport
Code de l'aéroport LYNI

Emplacement: Nis Airport
Distance: 75 (km)

Metar:
METAR LYNI 081330Z 04009KT 010V100 9999 BKN050 02/M09 Q1039 NOSIG

Temps: 08-02-2023 14:30 CET